Latest Weather Observations for Yarrawonga

IDV60801

Issued at 2:42 pm EDT Saturday 22 February 2020 (issued every 10 minutes, with the page automatically refreshed every 10 minutes)

About weather observations | Map of weather stations | Latest weather observations for VIC | Other Formats
Station Details ID: 081124 Name: YARRAWONGA Lat: -36.03 Lon: 146.03 Height: 128.9 m
Data from the previous 72 hours. | See also: Recent months at Yarrawonga
Date/Time
EDT
Temp
°C
App
Temp
°C
Dew
Point
°C
Rel
Hum
%
Delta-T
°C
Wind Press
QNH
hPa
Press
MSL
hPa
Rain since
9am
mm
Dir  Spd
km/h
Gust
km/h
Spd
kts
Gust
kts
22/02:30pm 30.1 28.3 9.6 28 11.6 NNE 9 20 5 11 1019.2 1018.6 0.0
22/02:00pm 29.5 27.4 9.6 29 11.2 N 11 19 6 10 1019.6 1019.0 0.0
22/01:30pm 28.7 27.5 10.4 32 10.4 NNE 7 17 4 9 1019.8 1019.2 0.0
22/01:00pm 28.6 26.9 11.2 34 10.0 N 11 20 6 11 1020.2 1019.6 0.0
22/12:30pm 27.8 26.1 12.6 39 8.9 N 13 22 7 12 1020.4 1019.8 0.0
22/12:00pm 26.4 24.6 12.1 41 8.2 NNE 13 20 7 11 1020.9 1020.4 0.0
22/11:30am 25.5 23.5 12.7 45 7.4 NNE 15 24 8 13 1021.1 1020.6 0.0
22/11:00am 24.9 22.5 12.8 47 7.0 NNE 17 28 9 15 1021.1 1020.6 0.0
22/10:30am 24.0 21.7 12.9 50 6.4 NNE 17 26 9 14 1021.1 1020.6 0.0
22/10:00am 23.1 21.1 12.7 52 6.0 NNE 15 24 8 13 1021.1 1020.6 0.0
22/09:30am 21.9 20.2 12.5 55 5.4 ENE 13 20 7 11 1021.0 1020.5 0.0
22/09:00am 20.1 18.1 11.6 58 4.7 ENE 13 19 7 10 1021.0 1020.5 0.0
22/08:30am 19.3 17.0 11.8 62 4.2 ENE 15 19 8 10 1020.7 1020.2 0.0
22/08:00am 17.7 16.6 11.9 69 3.2 E 9 13 5 7 1020.4 1019.8 0.0
22/07:30am 14.6 12.8 11.0 79 1.9 ENE 11 13 6 7 1020.1 1019.5 0.0
22/07:00am 11.0 9.5 8.6 85 1.2 ESE 6 9 3 5 1019.9 1019.3 0.0
22/06:30am 11.2 10.1 8.4 83 1.4 S 4 6 2 3 1019.5 1018.9 0.0
22/06:00am 11.0 9.8 8.2 83 1.4 SSW 4 6 2 3 1019.3 1018.7 0.0
22/05:30am 11.2 9.6 8.2 82 1.5 SW 6 7 3 4 1018.9 1018.3 0.0
22/05:00am 10.9 9.3 8.1 83 1.4 SW 6 7 3 4 1018.8 1018.2 0.0
22/04:30am 11.2 9.5 8.2 82 1.5 SW 7 7 4 4 1018.7 1018.1 0.0
22/04:00am 12.0 10.3 8.3 78 1.8 WSW 7 7 4 4 1018.5 1017.9 0.0
22/03:30am 12.3 10.6 8.4 77 1.9 WSW 7 11 4 6 1018.4 1017.8 0.0
22/03:00am 12.5 10.8 8.4 76 2.0 WSW 7 7 4 4 1018.3 1017.7 0.0
22/02:30am 12.9 10.8 8.4 74 2.3 WSW 9 9 5 5 1018.2 1017.6 0.0
22/02:00am 13.6 11.1 8.4 71 2.6 WSW 11 13 6 7 1018.1 1017.5 0.0
22/01:30am 14.1 11.6 8.3 68 2.9 WSW 11 15 6 8 1018.1 1017.5 0.0
22/01:00am 14.6 12.1 8.3 66 3.2 WSW 11 15 6 8 1018.1 1017.5 0.0
22/12:30am 15.2 12.3 8.2 63 3.5 WSW 13 15 7 8 1018.0 1017.4 0.0
22/12:00am 15.9 13.1 8.4 61 3.8 WSW 13 15 7 8 1017.9 1017.3 0.0
 
Date/Time
EDT
Temp
°C
App
Temp
°C
Dew
Point
°C
Rel
Hum
%
Delta-T
°C
Wind Press
QNH
hPa
Press
MSL
hPa
Rain since
9am
mm
Dir  Spd
km/h
Gust
km/h
Spd
kts
Gust
kts
21/11:30pm 16.6 13.4 8.3 58 4.2 WSW 15 20 8 11 1017.6 1017.0 0.0
21/11:00pm 17.5 13.9 8.4 55 4.7 WSW 17 20 9 11 1017.7 1017.1 0.0
21/10:30pm 18.3 14.8 8.6 53 5.0 WSW 17 22 9 12 1017.5 1016.9 0.0
21/10:00pm 19.1 15.1 8.4 50 5.6 SW 19 22 10 12 1017.2 1016.6 0.0
21/09:30pm 20.1 16.1 8.4 47 6.1 SW 19 24 10 13 1016.8 1016.2 0.0
21/09:00pm 21.1 16.1 8.0 43 6.8 WSW 24 32 13 17 1016.2 1015.6 0.0
21/08:30pm 22.1 17.8 7.9 40 7.5 WSW 20 28 11 15 1015.7 1015.1 0.0
21/08:00pm 23.3 18.1 7.4 36 8.3 SW 24 32 13 17 1015.3 1014.7 0.0
21/07:30pm 24.8 19.5 7.0 32 9.4 SW 24 33 13 18 1015.0 1014.4 0.0
21/07:00pm 26.1 20.8 6.7 29 10.2 SW 24 33 13 18 1014.5 1014.0 0.0
21/06:30pm 27.4 22.3 6.2 26 11.2 SW 22 32 12 17 1014.3 1013.8 0.0
21/06:00pm 28.0 23.3 6.2 25 11.5 SW 20 32 11 17 1014.0 1013.5 0.0
21/05:30pm 28.2 23.3 5.1 23 12.0 SW 20 44 11 24 1014.0 1013.5 0.0
21/05:00pm 28.7 23.6 4.2 21 12.5 SW 20 28 11 15 1014.0 1013.5 0.0
21/04:30pm 28.5 23.3 2.7 19 12.9 SW 19 30 10 16 1014.0 1013.5 0.0
21/04:00pm 28.9 24.3 3.7 20 12.8 SSW 17 26 9 14 1014.2 1013.7 0.0
21/03:30pm 28.6 26.0 4.2 21 12.5 SSW 7 20 4 11 1014.5 1014.0 0.0
21/03:00pm 28.1 24.1 3.0 20 12.5 SW 13 24 7 13 1015.0 1014.4 0.0
21/02:30pm 27.1 23.9 2.9 21 12.0 SW 9 22 5 12 1015.2 1014.6 0.0
21/02:00pm 26.9 23.1 4.0 23 11.5 SSW 13 20 7 11 1015.4 1014.8 0.0
21/01:30pm 26.0 23.5 4.5 25 10.9 WSW 7 17 4 9 1015.6 1015.0 0.0
21/01:00pm 25.6 22.4 5.2 27 10.4 SW 11 20 6 11 1016.0 1015.4 0.0
21/12:30pm 24.6 22.3 7.3 33 9.1 SW 9 17 5 9 1016.3 1015.7 0.0
21/12:00pm 23.8 21.5 7.4 35 8.6 SSW 9 19 5 10 1016.6 1016.0 0.0
21/11:30am 22.9 21.2 7.4 37 8.1 SSE 6 13 3 7 1016.7 1016.1 0.0
21/11:00am 21.9 19.7 7.7 40 7.4 SSW 9 15 5 8 1016.9 1016.3 0.0
21/10:30am 20.6 17.5 7.2 42 6.9 S 13 20 7 11 1016.9 1016.3 0.0
21/10:00am 19.4 15.5 7.2 45 6.2 S 17 22 9 12 1016.7 1016.1 0.0
21/09:30am 18.3 14.1 7.4 49 5.5 S 19 26 10 14 1016.4 1015.8 0.0
21/09:00am 16.5 12.7 7.7 56 4.4 SSW 17 22 9 12 1016.3 1015.7 0.0
21/08:30am 15.4 11.6 7.7 60 3.9 SSW 17 22 9 12 1015.9 1015.3 0.0
21/08:00am 14.0 11.0 7.5 65 3.2 SW 13 17 7 9 1015.5 1014.9 0.0
21/07:30am 12.6 10.3 7.5 71 2.5 SW 9 13 5 7 1015.1 1014.5 0.0
21/07:00am 12.5 9.8 7.4 71 2.5 SW 11 13 6 7 1014.7 1014.2 0.0
21/06:30am 12.7 10.0 7.2 69 2.7 SSW 11 15 6 8 1014.3 1013.8 0.0
21/06:00am 12.7 9.6 7.2 69 2.7 SW 13 17 7 9 1014.0 1013.5 0.0
21/05:30am 12.7 9.6 7.2 69 2.7 SW 13 17 7 9 1013.8 1013.2 0.0
21/05:00am 13.1 10.1 7.5 69 2.8 SW 13 19 7 10 1013.4 1012.8 0.0
21/04:30am 13.0 10.3 7.5 69 2.7 SW 11 15 6 8 1013.4 1012.8 0.0
21/04:00am 13.2 9.8 7.6 69 2.8 SW 15 19 8 10 1013.3 1012.7 0.0
21/03:30am 13.4 10.0 7.6 68 2.9 SW 15 19 8 10 1013.5 1012.9 0.0
21/03:00am 13.3 9.9 7.7 69 2.8 SW 15 19 8 10 1013.4 1012.8 0.0
21/02:30am 13.5 10.5 7.9 69 2.8 SW 13 17 7 9 1013.5 1012.9 0.0
21/02:00am 13.9 10.2 8.1 68 2.9 SW 17 22 9 12 1013.7 1013.1 0.0
21/01:30am 14.2 10.6 8.2 67 3.0 SW 17 20 9 11 1013.7 1013.1 0.0
21/01:00am 14.4 10.8 8.4 67 3.0 SW 17 22 9 12 1013.9 1013.4 0.0
21/12:30am 14.8 10.2 8.3 65 3.3 SW 22 28 12 15 1013.9 1013.4 0.0
21/12:00am 15.2 11.2 8.2 63 3.5 SW 19 24 10 13 1013.9 1013.4 0.0
 
Date/Time
EDT
Temp
°C
App
Temp
°C
Dew
Point
°C
Rel
Hum
%
Delta-T
°C
Wind Press
QNH
hPa
Press
MSL
hPa
Rain since
9am
mm
Dir  Spd
km/h
Gust
km/h
Spd
kts
Gust
kts
20/11:30pm 15.4 11.4 8.2 62 3.6 SW 19 22 10 12 1014.0 1013.5 0.0
20/11:00pm 16.1 11.1 8.1 59 4.1 SW 24 30 13 16 1013.9 1013.4 0.0
20/10:30pm 16.5 11.8 7.7 56 4.4 SW 22 28 12 15 1013.8 1013.2 0.0
20/10:00pm 17.2 12.4 7.5 53 4.9 SW 22 30 12 16 1013.6 1013.0 0.0
20/09:30pm 18.2 12.6 7.3 49 5.5 SW 26 32 14 17 1013.2 1012.6 0.0
20/09:00pm 19.2 14.3 7.0 45 6.2 WSW 22 32 12 17 1012.8 1012.2 0.0
20/08:30pm 20.0 15.1 7.1 43 6.6 SW 22 30 12 16 1012.5 1011.9 0.0
20/08:00pm 20.5 14.8 6.8 41 7.0 SW 26 35 14 19 1012.3 1011.7 0.0
20/07:30pm 21.6 15.1 6.3 37 7.8 SW 30 37 16 20 1011.9 1011.3 0.0
20/07:00pm 23.3 16.7 6.1 33 8.8 SW 30 39 16 21 1011.5 1010.9 0.0
20/06:30pm 24.9 19.1 6.1 30 9.7 WSW 26 37 14 20 1011.2 1010.6 0.0
20/06:00pm 24.4 18.8 5.2 29 9.8 SW 24 33 13 18 1010.9 1010.3 0.0
20/05:30pm 25.8 19.9 5.9 28 10.3 WSW 26 41 14 22 1011.0 1010.4 0.0
20/05:00pm 25.4 20.3 6.1 29 10.0 WSW 22 35 12 19 1011.1 1010.5 0.0
20/04:30pm 25.5 20.9 6.7 30 9.9 WSW 20 30 11 16 1011.2 1010.6 0.0
20/04:00pm 25.6 21.1 6.8 30 9.9 WSW 20 28 11 15 1011.5 1010.9 0.0
20/03:30pm 25.4 21.1 7.1 31 9.7 SW 19 30 10 16 1011.8 1011.2 0.0
20/03:00pm 25.7 21.5 7.3 31 9.8 SW 19 30 10 16 1012.2 1011.6 0.0
20/02:30pm 24.7 20.4 6.9 32 9.3 SSW 19 33 10 18 1012.4 1011.8 0.0
20/02:00pm 24.2 19.9 6.9 33 9.0 SW 19 30 10 16 1012.7 1012.1 0.0
20/01:30pm 23.3 19.0 7.0 35 8.5 SW 19 35 10 19 1012.8 1012.2 0.0
20/01:00pm 23.1 18.6 6.8 35 8.4 SSW 20 32 11 17 1013.0 1012.4 0.0
20/12:30pm 22.5 18.0 7.1 37 8.0 SSW 20 28 11 15 1013.4 1012.8 0.0
20/12:00pm 21.6 17.2 7.4 40 7.4 SSW 20 32 11 17 1013.8 1013.2 0.0
20/11:30am 20.7 16.3 7.3 42 6.9 SW 20 30 11 16 1013.9 1013.4 0.0
20/11:00am 19.9 15.7 7.6 45 6.3 S 19 28 10 15 1014.1 1013.6 0.0
20/10:30am 19.4 15.4 8.1 48 5.9 SSW 19 26 10 14 1014.0 1013.5 0.0
20/10:00am 18.4 14.1 7.8 50 5.4 SSW 20 30 11 16 1013.8 1013.2 0.0
20/09:30am 17.4 12.3 7.7 53 4.9 SSW 24 30 13 16 1013.6 1013.0 0.0
20/09:00am 16.6 11.2 7.8 56 4.5 SSW 26 32 14 17 1013.3 1012.7 0.0
20/08:30am 15.6 11.9 8.1 61 3.8 SSW 17 26 9 14 1013.1 1012.5 0.0
20/08:00am 13.7 11.3 8.5 71 2.6 SW 11 17 6 9 1012.7 1012.1 0.0
20/07:30am 11.9 9.6 8.9 82 1.5 SW 11 13 6 7 1012.4 1011.8 0.0
20/07:00am 11.2 8.9 8.9 86 1.2 SW 11 13 6 7 1011.9 1011.3 0.0
20/06:30am 11.6 8.9 8.8 83 1.4 SW 13 17 7 9 1011.6 1011.0 0.0
20/06:00am 11.8 8.5 9.4 85 1.2 SW 17 20 9 11 1011.2 1010.6 0.0
20/05:30am 12.0 8.7 9.6 85 1.2 SW 17 20 9 11 1011.4 1010.8 0.0
20/05:00am 11.9 8.1 9.1 83 1.4 SW 19 22 10 12 1011.3 1010.7 0.0
20/04:30am 12.2 9.2 9.2 82 1.5 SW 15 20 8 11 1011.4 1010.8 0.0
20/04:00am 12.6 9.7 9.6 82 1.5 SW 15 19 8 10 1011.5 1010.9 0.0
20/03:30am 12.9 9.7 10.1 83 1.5 SW 17 22 9 12 1011.3 1010.7 0.0
20/03:00am 12.8 10.3 9.8 82 1.5 WSW 13 17 7 9 1011.4 1010.8 0.0
20/02:30am 12.9 10.3 9.5 80 1.7 SW 13 19 7 10 1011.6 1011.0 0.0
20/02:00am 13.6 10.3 9.5 76 2.1 SW 17 20 9 11 1011.6 1011.0 0.0
20/01:30am 14.1 11.2 9.5 74 2.4 SW 15 20 8 11 1011.7 1011.1 0.0
20/01:00am 14.4 11.0 9.2 71 2.7 SW 17 19 9 10 1012.0 1011.4 0.0
20/12:30am 14.8 10.8 9.0 68 3.0 SW 20 28 11 15 1011.8 1011.2 0.0
20/12:00am 14.6 11.5 8.8 68 3.0 SW 15 19 8 10 1011.9 1011.3 0.0
 
Date/Time
EDT
Temp
°C
App
Temp
°C
Dew
Point
°C
Rel
Hum
%
Delta-T
°C
Wind Press
QNH
hPa
Press
MSL
hPa
Rain since
9am
mm
Dir  Spd
km/h
Gust
km/h
Spd
kts
Gust
kts
19/11:30pm 15.4 9.8 8.6 64 3.5 SW 28 35 15 19 1011.8 1011.2 0.0
19/11:00pm 15.7 11.2 8.4 62 3.7 SW 22 28 12 15 1012.3 1011.7 0.0
19/10:30pm 16.1 11.2 8.6 61 3.8 SW 24 32 13 17 1012.3 1011.7 0.0
19/10:00pm 16.4 11.9 8.4 59 4.1 SW 22 30 12 16 1012.0 1011.4 0.0
19/09:30pm 16.9 11.5 8.1 56 4.5 SW 26 33 14 18 1011.7 1011.1 0.0
19/09:00pm 17.8 11.8 7.2 50 5.4 SSW 28 41 15 22 1011.6 1011.0 0.0
19/08:30pm 18.3 11.5 6.8 47 5.8 SW 32 41 17 22 1011.1 1010.5 0.0
19/08:00pm 19.2 11.6 5.6 41 6.7 SSW 35 50 19 27 1010.4 1009.8 0.0
19/07:30pm 20.3 12.9 5.1 37 7.5 SW 33 50 18 27 1009.8 1009.2 0.0
19/07:00pm 21.4 12.3 4.0 32 8.5 SW 41 54 22 29 1009.5 1008.9 0.0
19/06:30pm 22.3 14.4 4.4 31 8.8 SW 35 50 19 27 1009.2 1008.6 0.0
19/06:00pm 23.0 14.8 5.0 31 9.0 SW 37 48 20 26 1008.9 1008.3 0.0
19/05:40pm 23.5 14.9 4.9 30 9.3 SW 39 59 21 32 1008.7 1008.1 0.0
19/05:30pm 23.3 14.6 4.3 29 9.4 SW 39 50 21 27 1008.6 1008.0 0.0
19/05:00pm 23.4 14.5 2.8 26 10.0 SW 39 54 21 29 1008.6 1008.0 0.0
19/04:34pm 24.0 16.0 5.8 31 9.3 SW 37 57 20 31 1008.5 1007.9 0.0
19/04:30pm 23.7 15.8 6.0 32 9.1 SW 37 50 20 27 1008.5 1007.9 0.0
19/04:00pm 22.2 15.9 7.6 39 7.7 SW 30 46 16 25 1008.6 1008.0 0.0
19/03:30pm 21.5 14.7 9.4 46 6.5 SW 35 48 19 26 1009.0 1008.4 0.0
19/03:00pm 21.7 15.1 9.9 47 6.4 SW 35 52 19 28 1009.1 1008.5 0.0

Other formats

Comma delimited format used in spreadsheet applications
http://www.bom.gov.au/fwo/IDV60801/IDV60801.94862.axf

JavaScript Object Notation format (JSON) in row-major order
http://www.bom.gov.au/fwo/IDV60801/IDV60801.94862.json

Data quality

Most of these data are generated automatically and are frequently updated. Quality checks on data are not normally performed. It is possible for incorrect values to appear. Refer to information at About Latest Weather Observations and please check the disclaimer before using these data.